Terminal Aerodrome Forecast
Issued by NWS Wilmington, OH

Current Version | Previous Version | Text Only | Print | Product List | Glossary Off
Versions: 1 2 3 4 5 6 7 8 9 10 11 12 13 14 15 16 17 18 19 20 21 22 23 24 25

000
FTUS41 KILN 230200 AAB
TAFCVG
TAF AMD
KCVG 230216Z 2302/2406 01006KT P6SM BKN030
     FM230500 03004KT P6SM FEW035
     FM231500 29006KT P6SM SCT250
     FM240200 VRB03KT P6SM SCT250=

USA.gov is the U.S. government's official web portal to all federal, state and local government web resources and services.